createdAt,value
2022-08-24T00:01:29.153Z,100.00
2022-08-24T00:03:59.684Z,100.00
2022-08-24T00:06:29.133Z,100.00
2022-08-24T00:08:59.462Z,100.00
2022-08-24T00:11:29.476Z,100.00
2022-08-24T00:13:58.437Z,100.00
2022-08-24T00:16:28.033Z,100.00
2022-08-24T00:18:57.153Z,100.00
2022-08-24T00:21:25.926Z,100.00
2022-08-24T00:23:54.644Z,100.00
2022-08-24T00:26:28.528Z,100.00
2022-08-24T00:29:05.440Z,100.00
2022-08-24T00:31:35.815Z,100.00
2022-08-24T00:34:04.521Z,100.00
2022-08-24T00:36:32.816Z,100.00
2022-08-24T00:39:01.646Z,100.00
2022-08-24T00:41:30.609Z,100.00
2022-08-24T00:44:02.928Z,100.00
2022-08-24T00:46:44.625Z,100.00
2022-08-24T00:49:21.513Z,100.00
2022-08-24T00:51:56.394Z,100.00
2022-08-24T00:54:28.116Z,100.00
2022-08-24T00:57:02.947Z,100.00
2022-08-24T00:59:39.402Z,100.00
2022-08-24T01:02:15.566Z,100.00
2022-08-24T01:04:51.194Z,100.00
2022-08-24T01:07:24.037Z,100.00
2022-08-24T01:09:54.670Z,100.00
2022-08-24T01:12:25.439Z,100.00
2022-08-24T01:14:57.436Z,100.00
2022-08-24T01:17:44.018Z,100.00
2022-08-24T01:20:13.319Z,100.00
2022-08-24T01:22:59.973Z,100.00
2022-08-24T01:25:31.498Z,100.00
2022-08-24T01:28:03.072Z,100.00
2022-08-24T01:30:36.519Z,100.00
2022-08-24T01:33:08.523Z,100.00
2022-08-24T01:35:38.115Z,100.00
2022-08-24T01:38:10.752Z,100.00
2022-08-24T01:40:45.986Z,100.00
2022-08-24T01:43:16.047Z,100.00
2022-08-24T01:45:44.892Z,100.00
2022-08-24T01:48:15.442Z,100.00
2022-08-24T01:50:52.813Z,100.00
2022-08-24T01:53:23.266Z,100.00
2022-08-24T01:55:53.287Z,100.00
2022-08-24T01:58:21.952Z,100.00
2022-08-24T02:00:50.500Z,100.00
2022-08-24T02:03:19.012Z,100.00
2022-08-24T02:05:53.905Z,100.00
2022-08-24T02:08:23.225Z,100.00
2022-08-24T02:10:57.006Z,100.00
2022-08-24T02:13:28.875Z,100.00
2022-08-24T02:15:58.015Z,100.00
2022-08-24T02:18:26.414Z,100.00
2022-08-24T02:20:54.914Z,100.00
2022-08-24T02:23:23.262Z,100.00
2022-08-24T02:25:54.319Z,100.00
2022-08-24T02:28:24.651Z,100.00
2022-08-24T02:30:53.774Z,100.00
2022-08-24T02:33:23.698Z,100.00
2022-08-24T02:35:53.438Z,100.00
2022-08-24T02:38:25.088Z,100.00
2022-08-24T02:40:54.244Z,100.00
2022-08-24T02:43:24.487Z,100.00
2022-08-24T02:45:53.119Z,100.00
2022-08-24T02:48:24.393Z,100.00
2022-08-24T02:50:53.849Z,100.00
2022-08-24T02:53:24.893Z,100.00
2022-08-24T02:55:53.787Z,100.00
2022-08-24T02:58:22.262Z,100.00
2022-08-24T03:00:53.361Z,100.00
2022-08-24T03:03:22.496Z,100.00
2022-08-24T03:05:51.167Z,100.00
2022-08-24T03:08:23.740Z,100.00
2022-08-24T03:10:52.870Z,100.00
2022-08-24T03:13:21.324Z,100.00
2022-08-24T03:15:49.869Z,100.00
2022-08-24T03:18:19.677Z,100.00
2022-08-24T03:20:54.451Z,100.00
2022-08-24T03:23:23.960Z,100.00
2022-08-24T03:25:53.059Z,100.00
2022-08-24T03:28:24.090Z,100.00
2022-08-24T03:30:53.023Z,100.00
2022-08-24T03:33:22.919Z,100.00
2022-08-24T03:35:51.255Z,100.00
2022-08-24T03:38:26.223Z,100.00
2022-08-24T03:40:54.815Z,100.00
2022-08-24T03:43:40.948Z,100.00
2022-08-24T03:46:12.441Z,100.00
2022-08-24T03:48:45.523Z,100.00
2022-08-24T03:51:15.550Z,100.00
2022-08-24T03:53:43.996Z,100.00
2022-08-24T03:56:13.584Z,100.00
2022-08-24T03:58:42.749Z,100.00
2022-08-24T04:01:12.285Z,100.00
2022-08-24T04:03:43.423Z,100.00
2022-08-24T04:06:16.612Z,100.00
2022-08-24T04:08:45.880Z,100.00
2022-08-24T04:11:16.080Z,100.00
2022-08-24T04:13:46.820Z,100.00
2022-08-24T04:16:18.128Z,100.00
2022-08-24T04:18:48.937Z,100.00
2022-08-24T04:21:21.567Z,100.00
2022-08-24T04:23:50.818Z,100.00
2022-08-24T04:26:26.883Z,100.00
2022-08-24T04:29:12.471Z,100.00
2022-08-24T04:31:45.904Z,100.00
2022-08-24T04:34:16.366Z,100.00
2022-08-24T04:36:47.280Z,100.00
2022-08-24T04:39:16.476Z,100.00
2022-08-24T04:42:03.653Z,100.00
2022-08-24T04:44:37.458Z,100.00
2022-08-24T04:47:08.490Z,100.00
2022-08-24T04:49:39.419Z,100.00
2022-08-24T04:52:10.022Z,100.00
2022-08-24T04:54:38.903Z,100.00
2022-08-24T04:57:14.723Z,100.00
2022-08-24T04:59:47.295Z,100.00
2022-08-24T05:02:16.029Z,100.00
2022-08-24T05:04:48.408Z,100.00
2022-08-24T05:07:19.832Z,100.00
2022-08-24T05:09:48.928Z,100.00
2022-08-24T05:12:21.272Z,100.00
2022-08-24T05:15:02.090Z,100.00
2022-08-24T05:17:35.475Z,100.00
2022-08-24T05:20:06.514Z,100.00
2022-08-24T05:22:36.571Z,100.00
2022-08-24T05:25:05.349Z,100.00
2022-08-24T05:27:34.654Z,100.00
2022-08-24T05:30:03.764Z,100.00
2022-08-24T05:32:32.376Z,100.00
2022-08-24T05:35:01.713Z,100.00
2022-08-24T05:37:30.706Z,100.00
2022-08-24T05:40:19.709Z,100.00
2022-08-24T05:42:51.493Z,100.00
2022-08-24T05:45:20.732Z,100.00
2022-08-24T05:47:51.378Z,100.00
2022-08-24T05:50:39.641Z,100.00
2022-08-24T05:53:09.066Z,100.00
2022-08-24T05:55:40.998Z,100.00
2022-08-24T05:58:10.930Z,100.00
2022-08-24T06:00:41.690Z,100.00
2022-08-24T06:03:13.549Z,100.00
2022-08-24T06:05:49.123Z,100.00
2022-08-24T06:08:17.804Z,100.00
2022-08-24T06:10:49.034Z,100.00
2022-08-24T06:13:18.114Z,100.00
2022-08-24T06:16:04.866Z,100.00
2022-08-24T06:18:35.817Z,100.00
2022-08-24T06:21:08.408Z,100.00
2022-08-24T06:23:37.801Z,100.00
2022-08-24T06:26:26.117Z,100.00
2022-08-24T06:28:54.895Z,100.00
2022-08-24T06:31:24.456Z,100.00
2022-08-24T06:33:54.840Z,100.00
2022-08-24T06:36:24.037Z,100.00
2022-08-24T06:38:53.210Z,100.00
2022-08-24T06:41:23.559Z,100.00
2022-08-24T06:43:52.218Z,100.00
2022-08-24T06:46:32.010Z,100.00
2022-08-24T06:49:01.440Z,100.00
2022-08-24T06:51:30.339Z,100.00
2022-08-24T06:54:00.041Z,100.00
2022-08-24T06:56:30.655Z,100.00
2022-08-24T06:58:59.999Z,100.00
2022-08-24T07:01:29.829Z,100.00
2022-08-24T07:03:58.664Z,100.00
2022-08-24T07:06:45.907Z,100.00
2022-08-24T07:09:16.241Z,100.00
2022-08-24T07:11:46.357Z,100.00
2022-08-24T07:14:14.949Z,100.00
2022-08-24T07:16:44.020Z,100.00
2022-08-24T07:19:12.585Z,100.00
2022-08-24T07:21:41.411Z,100.00
2022-08-24T07:24:10.843Z,100.00
2022-08-24T07:26:41.400Z,100.00
2022-08-24T07:29:43.750Z,100.00
2022-08-24T07:32:05.804Z,100.00
2022-08-24T07:34:39.650Z,100.00
2022-08-24T07:37:09.447Z,100.00
2022-08-24T07:39:41.714Z,100.00
2022-08-24T07:42:14.685Z,100.00
2022-08-24T07:44:48.117Z,100.00
2022-08-24T07:50:11.678Z,100.00
2022-08-24T07:52:41.028Z,100.00
2022-08-24T07:55:11.745Z,100.00
2022-08-24T07:57:42.001Z,100.00
2022-08-24T08:00:17.016Z,100.00
2022-08-24T08:02:50.311Z,100.00
2022-08-24T08:05:22.699Z,100.00
2022-08-24T08:07:54.172Z,100.00
2022-08-24T08:10:23.566Z,100.00
2022-08-24T08:12:54.103Z,100.00
2022-08-24T08:15:24.132Z,100.00
2022-08-24T08:18:01.640Z,100.00
2022-08-24T08:20:30.486Z,100.00
2022-08-24T08:23:16.743Z,100.00
2022-08-24T08:25:49.314Z,100.00
2022-08-24T08:28:35.252Z,100.00
2022-08-24T08:31:06.438Z,100.00
2022-08-24T08:33:36.471Z,100.00
2022-08-24T08:36:09.355Z,100.00
2022-08-24T08:38:43.099Z,100.00
2022-08-24T08:41:56.420Z,100.00
2022-08-24T08:44:43.916Z,100.00
2022-08-24T08:47:24.191Z,100.00
2022-08-24T08:50:08.133Z,100.00
2022-08-24T08:53:05.698Z,100.00
2022-08-24T08:55:37.826Z,100.00
2022-08-24T08:58:22.691Z,100.00
2022-08-24T09:01:04.659Z,100.00
2022-08-24T09:04:06.074Z,100.00
2022-08-24T09:06:57.316Z,100.00
2022-08-24T09:09:49.706Z,100.00
2022-08-24T09:12:29.637Z,97.59
2022-08-24T09:15:23.781Z,96.66
2022-08-24T09:18:07.012Z,94.69
2022-08-24T09:21:03.377Z,92.02
2022-08-24T09:23:39.773Z,91.24
2022-08-24T09:26:20.808Z,87.45
2022-08-24T09:29:02.039Z,85.10
2022-08-24T09:31:51.870Z,80.55
2022-08-24T09:34:36.084Z,83.60
2022-08-24T09:37:31.713Z,78.08
2022-08-24T09:40:18.715Z,77.14
2022-08-24T09:43:37.852Z,71.35
2022-08-24T09:46:32.725Z,71.25
2022-08-24T09:49:24.195Z,72.26
2022-08-24T09:52:39.071Z,69.65
2022-08-24T09:55:52.782Z,69.61
2022-08-24T09:58:31.134Z,66.09
2022-08-24T10:01:10.171Z,66.22
2022-08-24T10:04:03.023Z,59.53
2022-08-24T10:06:46.746Z,59.77
2022-08-24T10:09:29.453Z,58.00
2022-08-24T10:12:05.899Z,54.89
2022-08-24T10:14:47.180Z,54.09
2022-08-24T10:17:25.993Z,53.60
2022-08-24T10:20:09.073Z,54.60
2022-08-24T10:23:00.924Z,52.44
2022-08-24T10:25:38.656Z,53.08
2022-08-24T10:28:35.294Z,51.92
2022-08-24T10:31:09.722Z,52.47
2022-08-24T10:33:56.035Z,51.14
2022-08-24T10:36:44.237Z,51.14
2022-08-24T10:39:41.283Z,48.34
2022-08-24T10:42:54.464Z,46.06
2022-08-24T10:46:00.958Z,46.86
2022-08-24T10:48:53.096Z,44.37
2022-08-24T10:51:36.270Z,45.42
2022-08-24T10:54:06.800Z,45.53
2022-08-24T10:56:44.549Z,44.11
2022-08-24T10:59:23.815Z,43.73
2022-08-24T11:02:12.427Z,42.41
2022-08-24T11:04:41.951Z,42.03
2022-08-24T11:07:18.615Z,43.28
2022-08-24T11:09:53.411Z,42.88
2022-08-24T11:12:29.756Z,42.47
2022-08-24T11:15:02.111Z,43.01
2022-08-24T11:17:34.882Z,43.35
2022-08-24T11:20:03.805Z,42.23
2022-08-24T11:22:37.223Z,40.83
2022-08-24T11:25:12.065Z,41.76
2022-08-24T11:27:46.107Z,41.69
2022-08-24T11:30:25.605Z,41.11
2022-08-24T11:32:57.071Z,41.81
2022-08-24T11:35:27.987Z,41.72
2022-08-24T11:37:59.372Z,42.00
2022-08-24T11:40:32.269Z,42.23
2022-08-24T11:43:37.278Z,40.45
2022-08-24T11:46:25.863Z,40.49
2022-08-24T11:49:04.442Z,39.67
2022-08-24T11:51:43.738Z,37.70
2022-08-24T11:54:24.637Z,38.14
2022-08-24T11:57:08.598Z,36.79
2022-08-24T11:59:49.421Z,34.87
2022-08-24T12:02:29.476Z,35.14
2022-08-24T12:05:06.318Z,35.83
2022-08-24T12:07:50.876Z,37.20
2022-08-24T12:10:32.778Z,37.39
2022-08-24T12:13:06.624Z,37.79
2022-08-24T12:15:44.300Z,37.65
2022-08-24T12:18:28.315Z,38.56
2022-08-24T12:20:58.639Z,37.58
2022-08-24T12:23:31.349Z,38.09
2022-08-24T12:26:10.392Z,37.52
2022-08-24T12:28:42.422Z,36.75
2022-08-24T12:31:18.756Z,37.13
2022-08-24T12:33:52.413Z,38.20
2022-08-24T12:36:29.721Z,37.88
2022-08-24T12:39:10.266Z,37.33
2022-08-24T12:41:49.682Z,37.20
2022-08-24T12:44:19.952Z,37.23
2022-08-24T12:46:54.762Z,36.97
2022-08-24T12:49:30.615Z,36.76
2022-08-24T12:52:27.276Z,34.83
2022-08-24T12:55:16.852Z,35.55
2022-08-24T12:57:55.225Z,34.51
2022-08-24T13:00:29.253Z,34.39
2022-08-24T13:03:01.037Z,34.91
2022-08-24T13:05:43.271Z,33.69
2022-08-24T13:08:16.733Z,34.16
2022-08-24T13:10:54.777Z,33.94
2022-08-24T13:13:43.995Z,33.22
2022-08-24T13:16:13.233Z,32.99
2022-08-24T13:19:20.354Z,31.21
2022-08-24T13:21:55.180Z,30.33
2022-08-24T13:25:01.686Z,29.82
2022-08-24T13:27:50.803Z,29.38
2022-08-24T13:30:28.240Z,28.91
2022-08-24T13:33:07.679Z,27.30
2022-08-24T13:35:56.074Z,28.55
2022-08-24T13:38:48.890Z,28.86
2022-08-24T13:41:34.997Z,28.01
2022-08-24T13:44:14.240Z,28.10
2022-08-24T13:46:53.398Z,28.11
2022-08-24T13:49:39.126Z,28.02
2022-08-24T13:52:22.741Z,27.01
2022-08-24T13:55:07.742Z,27.23
2022-08-24T13:57:43.595Z,27.32
2022-08-24T14:00:44.254Z,27.79
2022-08-24T14:03:34.706Z,27.81
2022-08-24T14:06:21.403Z,27.13
2022-08-24T14:09:01.991Z,27.78
2022-08-24T14:11:49.627Z,27.50
2022-08-24T14:14:27.937Z,27.39
2022-08-24T14:17:35.626Z,27.17
2022-08-24T14:20:11.581Z,27.00
2022-08-24T14:22:53.323Z,27.00
2022-08-24T14:25:24.314Z,27.40
2022-08-24T14:28:26.647Z,27.78
2022-08-24T14:31:28.316Z,26.83
2022-08-24T14:34:11.801Z,28.05
2022-08-24T14:36:56.902Z,28.90
2022-08-24T14:39:37.627Z,27.96
2022-08-24T14:42:17.358Z,28.05
2022-08-24T14:45:06.567Z,28.03
2022-08-24T14:47:47.333Z,27.62
2022-08-24T14:50:20.619Z,27.73
2022-08-24T14:53:01.265Z,27.50
2022-08-24T14:55:39.600Z,27.86
2022-08-24T14:58:19.131Z,27.89
2022-08-24T15:01:04.797Z,28.00
2022-08-24T15:03:51.327Z,27.18
2022-08-24T15:06:28.389Z,27.94
2022-08-24T15:09:12.845Z,28.15
2022-08-24T15:11:43.642Z,28.20
2022-08-24T15:14:24.530Z,27.80
2022-08-24T15:17:09.633Z,26.95
2022-08-24T15:19:50.845Z,27.95
2022-08-24T15:22:31.035Z,27.46
2022-08-24T15:25:06.314Z,27.60
2022-08-24T15:27:47.191Z,27.43
2022-08-24T15:30:27.429Z,27.36
2022-08-24T15:33:08.807Z,28.19
2022-08-24T15:35:41.707Z,27.85
2022-08-24T15:38:25.543Z,27.93
2022-08-24T15:41:06.332Z,27.66
2022-08-24T15:43:37.777Z,27.99
2022-08-24T15:46:07.762Z,28.05
2022-08-24T15:48:41.622Z,27.98
2022-08-24T15:51:10.500Z,27.80
2022-08-24T15:53:41.928Z,27.64
2022-08-24T15:56:36.068Z,28.37
2022-08-24T15:59:10.830Z,28.93
2022-08-24T16:01:57.562Z,29.46
2022-08-24T16:04:47.986Z,29.04
2022-08-24T16:07:25.619Z,28.50
2022-08-24T16:10:08.657Z,28.35
2022-08-24T16:12:38.211Z,28.80
2022-08-24T16:15:14.238Z,28.32
2022-08-24T16:17:50.647Z,28.20
2022-08-24T16:20:34.487Z,28.89
2022-08-24T16:23:06.363Z,28.61
2022-08-24T16:25:46.902Z,28.77
2022-08-24T16:28:36.786Z,28.60
2022-08-24T16:31:07.375Z,28.78
2022-08-24T16:33:43.305Z,29.07
2022-08-24T16:36:18.000Z,29.10
2022-08-24T16:38:49.531Z,29.54
2022-08-24T16:41:20.798Z,29.72
2022-08-24T16:43:50.011Z,29.65
2022-08-24T16:46:22.905Z,29.41
2022-08-24T16:48:54.156Z,29.68
2022-08-24T16:51:26.080Z,29.45
2022-08-24T16:53:54.896Z,29.85
2022-08-24T16:56:24.011Z,29.81
2022-08-24T16:58:53.243Z,30.84
2022-08-24T17:01:21.851Z,30.61
2022-08-24T17:03:50.604Z,31.53
2022-08-24T17:06:20.998Z,32.33
2022-08-24T17:08:51.446Z,32.76
2022-08-24T17:11:20.817Z,33.29
2022-08-24T17:13:50.686Z,34.96
2022-08-24T17:16:20.852Z,35.06
2022-08-24T17:18:49.701Z,34.44
2022-08-24T17:21:18.705Z,35.34
2022-08-24T17:23:47.487Z,37.38
2022-08-24T17:26:21.578Z,39.04
2022-08-24T17:28:54.568Z,39.86
2022-08-24T17:31:25.503Z,40.87
2022-08-24T17:33:54.610Z,42.49
2022-08-24T17:36:24.605Z,44.38
2022-08-24T17:38:56.586Z,46.37
2022-08-24T17:41:28.878Z,48.45
2022-08-24T17:43:59.188Z,49.15
2022-08-24T17:46:28.529Z,51.09
2022-08-24T17:48:58.933Z,52.55
2022-08-24T17:51:27.900Z,53.60
2022-08-24T17:53:56.363Z,56.65
2022-08-24T17:56:30.368Z,58.05
2022-08-24T17:59:16.559Z,60.75
2022-08-24T18:01:45.340Z,64.11
2022-08-24T18:04:14.668Z,66.92
2022-08-24T18:06:43.408Z,70.07
2022-08-24T18:09:18.345Z,75.01
2022-08-24T18:11:48.819Z,76.77
2022-08-24T18:14:18.284Z,79.16
2022-08-24T18:16:53.986Z,83.36
2022-08-24T18:19:24.396Z,86.54
2022-08-24T18:21:53.357Z,89.19
2022-08-24T18:24:22.207Z,91.86
2022-08-24T18:26:52.931Z,95.74
2022-08-24T18:29:23.181Z,97.74
2022-08-24T18:31:52.667Z,99.47
2022-08-24T18:34:22.730Z,100.00
2022-08-24T18:36:51.360Z,100.00
2022-08-24T18:39:21.383Z,100.00
2022-08-24T18:41:52.466Z,100.00
2022-08-24T18:44:24.684Z,100.00
2022-08-24T18:46:55.153Z,100.00
2022-08-24T18:49:23.755Z,100.00
2022-08-24T18:51:52.623Z,100.00
2022-08-24T18:54:24.653Z,100.00
2022-08-24T18:56:54.605Z,100.00
2022-08-24T18:59:23.476Z,100.00
2022-08-24T19:02:10.655Z,100.00
2022-08-24T19:04:43.526Z,100.00
2022-08-24T19:07:12.529Z,100.00
2022-08-24T19:09:41.516Z,100.00
2022-08-24T19:12:12.414Z,100.00
2022-08-24T19:14:46.272Z,100.00
2022-08-24T19:17:15.855Z,100.00
2022-08-24T19:19:47.527Z,100.00
2022-08-24T19:22:17.605Z,100.00
2022-08-24T19:24:47.590Z,100.00
2022-08-24T19:27:19.286Z,100.00
2022-08-24T19:29:56.414Z,100.00
2022-08-24T19:32:29.327Z,100.00
2022-08-24T19:35:00.001Z,100.00
2022-08-24T19:37:28.881Z,100.00
2022-08-24T19:39:58.082Z,100.00
2022-08-24T19:42:29.650Z,100.00
2022-08-24T19:45:29.154Z,100.00
2022-08-24T19:47:58.326Z,100.00
2022-08-24T19:50:28.599Z,100.00
2022-08-24T19:53:01.658Z,100.00
2022-08-24T19:55:30.532Z,100.00
2022-08-24T19:58:07.198Z,100.00
2022-08-24T20:00:39.022Z,100.00
2022-08-24T20:03:08.788Z,100.00
2022-08-24T20:05:38.682Z,100.00
2022-08-24T20:08:07.198Z,100.00
2022-08-24T20:10:36.867Z,100.00
2022-08-24T20:13:07.336Z,100.00
2022-08-24T20:15:36.500Z,100.00
2022-08-24T20:18:05.411Z,100.00
2022-08-24T20:20:34.509Z,100.00
2022-08-24T20:23:08.250Z,100.00
2022-08-24T20:25:40.770Z,100.00
2022-08-24T20:28:40.807Z,100.00
2022-08-24T20:31:00.095Z,100.00
2022-08-24T20:33:29.010Z,100.00
2022-08-24T20:35:58.321Z,100.00
2022-08-24T20:38:31.980Z,100.00
2022-08-24T20:41:01.529Z,100.00
2022-08-24T20:43:31.735Z,100.00
2022-08-24T20:46:01.898Z,100.00
2022-08-24T20:48:33.533Z,100.00
2022-08-24T20:51:02.724Z,100.00
2022-08-24T20:53:31.361Z,100.00
2022-08-24T20:56:03.015Z,100.00
2022-08-24T20:58:33.506Z,100.00
2022-08-24T21:01:02.347Z,100.00
2022-08-24T21:03:31.264Z,100.00
2022-08-24T21:06:00.580Z,100.00
2022-08-24T21:08:29.745Z,100.00
2022-08-24T21:10:58.870Z,100.00
2022-08-24T21:13:29.827Z,100.00
2022-08-24T21:16:00.956Z,100.00
2022-08-24T21:18:29.879Z,100.00
2022-08-24T21:21:03.969Z,100.00
2022-08-24T21:23:34.063Z,100.00
2022-08-24T21:26:04.427Z,100.00
2022-08-24T21:28:33.684Z,100.00
2022-08-24T21:31:06.524Z,100.00
2022-08-24T21:33:54.049Z,100.00
2022-08-24T21:36:24.669Z,100.00
2022-08-24T21:38:53.600Z,100.00
2022-08-24T21:41:23.264Z,100.00
2022-08-24T21:43:52.380Z,100.00
2022-08-24T21:46:26.286Z,100.00
2022-08-24T21:48:55.175Z,100.00
2022-08-24T21:51:24.252Z,100.00
2022-08-24T21:53:54.883Z,100.00
2022-08-24T21:56:32.631Z,100.00
2022-08-24T21:59:03.564Z,100.00
2022-08-24T22:01:33.665Z,100.00
2022-08-24T22:04:02.427Z,100.00
2022-08-24T22:06:31.993Z,100.00
2022-08-24T22:09:02.003Z,100.00
2022-08-24T22:11:31.176Z,100.00
2022-08-24T22:14:00.276Z,100.00
2022-08-24T22:16:29.340Z,100.00
2022-08-24T22:18:59.594Z,100.00
2022-08-24T22:21:31.611Z,100.00
2022-08-24T22:24:05.309Z,100.00
2022-08-24T22:26:36.333Z,100.00
2022-08-24T22:29:07.285Z,100.00
2022-08-24T22:31:38.222Z,100.00
2022-08-24T22:34:10.572Z,100.00
2022-08-24T22:36:40.023Z,100.00
2022-08-24T22:39:11.013Z,100.00
2022-08-24T22:41:40.590Z,100.00
2022-08-24T22:44:22.093Z,100.00
2022-08-24T22:46:54.349Z,100.00
2022-08-24T22:49:29.258Z,100.00
2022-08-24T22:51:58.376Z,100.00
2022-08-24T22:54:27.350Z,100.00
2022-08-24T22:56:57.893Z,100.00
2022-08-24T22:59:31.810Z,100.00
2022-08-24T23:02:00.549Z,100.00
2022-08-24T23:04:36.117Z,100.00
2022-08-24T23:07:08.030Z,100.00
2022-08-24T23:09:44.952Z,100.00
2022-08-24T23:12:17.024Z,100.00
2022-08-24T23:14:45.699Z,100.00
2022-08-24T23:17:15.132Z,100.00
2022-08-24T23:20:06.537Z,100.00
2022-08-24T23:22:37.802Z,100.00
2022-08-24T23:25:07.884Z,100.00
2022-08-24T23:27:38.489Z,100.00
2022-08-24T23:30:11.263Z,100.00
2022-08-24T23:32:41.188Z,100.00
2022-08-24T23:35:11.347Z,100.00
2022-08-24T23:37:40.017Z,100.00
2022-08-24T23:40:10.033Z,100.00
2022-08-24T23:42:38.559Z,100.00
2022-08-24T23:45:11.147Z,100.00
2022-08-24T23:47:41.135Z,100.00
2022-08-24T23:50:11.996Z,100.00
2022-08-24T23:52:42.111Z,100.00
2022-08-24T23:55:21.673Z,100.00
2022-08-24T23:57:51.739Z,100.00
